sensor_id;sensor_type;location;lat;lon;timestamp;pressure;altitude;pressure_sealevel;temperature;humidity
3082;BME280;1551;51.046;7.010;2023-04-07T00:00:56;100709.03;;;9.45;nan
3082;BME280;1551;51.046;7.010;2023-04-07T00:03:45;100717.56;;;9.49;nan
3082;BME280;1551;51.046;7.010;2023-04-07T00:06:34;100715.84;;;9.51;nan
3082;BME280;1551;51.046;7.010;2023-04-07T00:09:23;100720.94;;;9.54;nan
3082;BME280;1551;51.046;7.010;2023-04-07T00:12:12;100714.97;;;9.47;nan
3082;BME280;1551;51.046;7.010;2023-04-07T00:15:01;100716.72;;;9.41;nan
3082;BME280;1551;51.046;7.010;2023-04-07T00:17:50;100707.38;;;9.37;nan
3082;BME280;1551;51.046;7.010;2023-04-07T00:20:40;100714.16;;;9.45;nan
3082;BME280;1551;51.046;7.010;2023-04-07T00:23:29;100711.59;;;9.45;nan
3082;BME280;1551;51.046;7.010;2023-04-07T00:26:18;100709.91;;;9.43;nan
3082;BME280;1551;51.046;7.010;2023-04-07T00:29:06;100714.16;;;9.47;nan
3082;BME280;1551;51.046;7.010;2023-04-07T00:31:55;100711.56;;;9.53;nan
3082;BME280;1551;51.046;7.010;2023-04-07T00:34:44;100709.88;;;9.53;nan
3082;BME280;1551;51.046;7.010;2023-04-07T00:37:34;100713.25;;;9.58;nan
3082;BME280;1551;51.046;7.010;2023-04-07T00:40:23;100708.97;;;9.63;nan
3082;BME280;1551;51.046;7.010;2023-04-07T00:43:12;100711.47;;;9.68;nan
3082;BME280;1551;51.046;7.010;2023-04-07T00:46:01;100705.47;;;9.70;nan
3082;BME280;1551;51.046;7.010;2023-04-07T00:48:50;100704.66;;;9.67;nan
3082;BME280;1551;51.046;7.010;2023-04-07T00:51:39;100705.50;;;9.69;nan
3082;BME280;1551;51.046;7.010;2023-04-07T00:54:29;100699.56;;;9.65;nan
3082;BME280;1551;51.046;7.010;2023-04-07T00:57:18;100702.97;;;9.64;nan
3082;BME280;1551;51.046;7.010;2023-04-07T01:00:08;100700.41;;;9.67;nan
3082;BME280;1551;51.046;7.010;2023-04-07T01:03:08;100697.84;;;9.64;nan
3082;BME280;1551;51.046;7.010;2023-04-07T01:06:04;100697.94;;;9.54;nan
3082;BME280;1551;51.046;7.010;2023-04-07T01:09:01;100697.00;;;9.64;nan
3082;BME280;1551;51.046;7.010;2023-04-07T01:12:16;100696.06;;;9.76;nan
3082;BME280;1551;51.046;7.010;2023-04-07T01:15:08;100690.91;;;9.83;nan
3082;BME280;1551;51.046;7.010;2023-04-07T01:18:09;100689.22;;;9.84;nan
3082;BME280;1551;51.046;7.010;2023-04-07T01:21:10;100690.94;;;9.80;nan
3082;BME280;1551;51.046;7.010;2023-04-07T01:24:22;100694.38;;;9.79;nan
3082;BME280;1551;51.046;7.010;2023-04-07T01:28:07;100693.47;;;9.86;nan
3082;BME280;1551;51.046;7.010;2023-04-07T01:30:39;100685.75;;;9.94;nan
3082;BME280;1551;51.046;7.010;2023-04-07T01:33:31;100691.69;;;9.96;nan
3082;BME280;1551;51.046;7.010;2023-04-07T01:36:22;100695.03;;;10.04;nan
3082;BME280;1551;51.046;7.010;2023-04-07T01:39:12;100694.16;;;10.05;nan
3082;BME280;1551;51.046;7.010;2023-04-07T01:42:02;100689.00;;;10.11;nan
3082;BME280;1551;51.046;7.010;2023-04-07T01:44:53;100694.09;;;10.17;nan
3082;BME280;1551;51.046;7.010;2023-04-07T01:47:44;100694.97;;;10.17;nan
3082;BME280;1551;51.046;7.010;2023-04-07T01:50:33;100692.41;;;10.17;nan
3082;BME280;1551;51.046;7.010;2023-04-07T01:53:23;100697.47;;;10.23;nan
3082;BME280;1551;51.046;7.010;2023-04-07T01:56:14;100691.44;;;10.30;nan
3082;BME280;1551;51.046;7.010;2023-04-07T01:59:04;100688.81;;;10.36;nan
3082;BME280;1551;51.046;7.010;2023-04-07T02:01:53;100684.56;;;10.35;nan
3082;BME280;1551;51.046;7.010;2023-04-07T02:04:54;100684.63;;;10.28;nan
3082;BME280;1551;51.046;7.010;2023-04-07T02:10:45;100683.81;;;10.24;nan
3082;BME280;1551;51.046;7.010;2023-04-07T02:13:36;100682.13;;;10.22;nan
3082;BME280;1551;51.046;7.010;2023-04-07T02:16:28;100682.09;;;10.25;nan
3082;BME280;1551;51.046;7.010;2023-04-07T02:19:18;100682.97;;;10.24;nan
3082;BME280;1551;51.046;7.010;2023-04-07T02:22:08;100672.81;;;10.13;nan
3082;BME280;1551;51.046;7.010;2023-04-07T02:24:57;100683.81;;;10.23;nan
3082;BME280;1551;51.046;7.010;2023-04-07T02:27:49;100672.91;;;10.00;nan
3082;BME280;1551;51.046;7.010;2023-04-07T02:30:38;100678.00;;;10.01;nan
3082;BME280;1551;51.046;7.010;2023-04-07T02:33:27;100679.69;;;10.05;nan
3082;BME280;1551;51.046;7.010;2023-04-07T02:36:17;100680.50;;;10.09;nan
3082;BME280;1551;51.046;7.010;2023-04-07T02:39:06;100682.19;;;10.14;nan
3082;BME280;1551;51.046;7.010;2023-04-07T02:41:55;100675.31;;;10.21;nan
3082;BME280;1551;51.046;7.010;2023-04-07T02:44:44;100685.47;;;10.30;nan
3082;BME280;1551;51.046;7.010;2023-04-07T02:47:34;100690.53;;;10.34;nan
3082;BME280;1551;51.046;7.010;2023-04-07T02:50:23;100696.53;;;10.33;nan
3082;BME280;1551;51.046;7.010;2023-04-07T02:53:14;100695.63;;;10.38;nan
3082;BME280;1551;51.046;7.010;2023-04-07T02:56:03;100681.16;;;10.32;nan
3082;BME280;1551;51.046;7.010;2023-04-07T02:58:52;100693.81;;;10.46;nan
3082;BME280;1551;51.046;7.010;2023-04-07T03:01:42;100687.84;;;10.48;nan
3082;BME280;1551;51.046;7.010;2023-04-07T03:04:32;100684.41;;;10.51;nan
3082;BME280;1551;51.046;7.010;2023-04-07T03:07:21;100681.84;;;10.52;nan
3082;BME280;1551;51.046;7.010;2023-04-07T03:10:13;100693.72;;;10.59;nan
3082;BME280;1551;51.046;7.010;2023-04-07T03:13:02;100690.31;;;10.57;nan
3082;BME280;1551;51.046;7.010;2023-04-07T03:15:52;100691.25;;;10.49;nan
3082;BME280;1551;51.046;7.010;2023-04-07T03:18:42;100689.63;;;10.43;nan
3082;BME280;1551;51.046;7.010;2023-04-07T03:21:32;100690.44;;;10.45;nan
3082;BME280;1551;51.046;7.010;2023-04-07T03:24:20;100692.94;;;10.48;nan
3082;BME280;1551;51.046;7.010;2023-04-07T03:27:10;100688.75;;;10.44;nan
3082;BME280;1551;51.046;7.010;2023-04-07T03:30:04;100683.69;;;10.38;nan
3082;BME280;1551;51.046;7.010;2023-04-07T03:32:54;100689.75;;;10.28;nan
3082;BME280;1551;51.046;7.010;2023-04-07T03:35:43;100690.59;;;10.27;nan
3082;BME280;1551;51.046;7.010;2023-04-07T03:38:33;100694.84;;;10.28;nan
3082;BME280;1551;51.046;7.010;2023-04-07T03:41:25;100691.44;;;10.30;nan
3082;BME280;1551;51.046;7.010;2023-04-07T03:44:14;100693.97;;;10.32;nan
3082;BME280;1551;51.046;7.010;2023-04-07T03:47:03;100698.19;;;10.34;nan
3082;BME280;1551;51.046;7.010;2023-04-07T03:49:52;100697.34;;;10.37;nan
3082;BME280;1551;51.046;7.010;2023-04-07T03:52:43;100697.34;;;10.35;nan
3082;BME280;1551;51.046;7.010;2023-04-07T03:55:43;100693.97;;;10.32;nan
3082;BME280;1551;51.046;7.010;2023-04-07T03:58:41;100703.41;;;10.25;nan
3082;BME280;1551;51.046;7.010;2023-04-07T04:01:34;100696.63;;;10.21;nan
3082;BME280;1551;51.046;7.010;2023-04-07T04:04:31;100710.16;;;10.32;nan
3082;BME280;1551;51.046;7.010;2023-04-07T04:07:21;100701.69;;;10.27;nan
3082;BME280;1551;51.046;7.010;2023-04-07T04:10:12;100702.53;;;10.25;nan
3082;BME280;1551;51.046;7.010;2023-04-07T04:13:05;100705.13;;;10.23;nan
3082;BME280;1551;51.046;7.010;2023-04-07T04:15:56;100705.97;;;10.25;nan
3082;BME280;1551;51.046;7.010;2023-04-07T04:18:45;100708.53;;;10.25;nan
3082;BME280;1551;51.046;7.010;2023-04-07T04:21:37;100708.50;;;10.28;nan
3082;BME280;1551;51.046;7.010;2023-04-07T04:24:27;100713.63;;;10.25;nan
3082;BME280;1551;51.046;7.010;2023-04-07T04:27:20;100715.38;;;10.22;nan
3082;BME280;1551;51.046;7.010;2023-04-07T04:30:15;100719.69;;;10.17;nan
3082;BME280;1551;51.046;7.010;2023-04-07T04:33:11;100718.84;;;10.15;nan
3082;BME280;1551;51.046;7.010;2023-04-07T04:36:15;100720.56;;;10.14;nan
3082;BME280;1551;51.046;7.010;2023-04-07T04:39:04;100715.44;;;10.14;nan
3082;BME280;1551;51.046;7.010;2023-04-07T04:41:56;100718.88;;;10.12;nan
3082;BME280;1551;51.046;7.010;2023-04-07T04:44:52;100729.97;;;10.08;nan
3082;BME280;1551;51.046;7.010;2023-04-07T04:47:43;100732.50;;;10.09;nan
3082;BME280;1551;51.046;7.010;2023-04-07T04:50:32;100729.09;;;10.07;nan
3082;BME280;1551;51.046;7.010;2023-04-07T04:53:23;100728.22;;;10.08;nan
3082;BME280;1551;51.046;7.010;2023-04-07T04:56:17;100735.03;;;10.14;nan
3082;BME280;1551;51.046;7.010;2023-04-07T04:59:09;100733.34;;;10.08;nan
3082;BME280;1551;51.046;7.010;2023-04-07T05:02:24;100737.63;;;10.06;nan
3082;BME280;1551;51.046;7.010;2023-04-07T05:05:15;100741.88;;;10.10;nan
3082;BME280;1551;51.046;7.010;2023-04-07T05:08:05;100743.59;;;10.05;nan
3082;BME280;1551;51.046;7.010;2023-04-07T05:10:58;100736.81;;;10.03;nan
3082;BME280;1551;51.046;7.010;2023-04-07T05:13:49;100744.44;;;10.12;nan
3082;BME280;1551;51.046;7.010;2023-04-07T05:16:38;100744.41;;;10.09;nan
3082;BME280;1551;51.046;7.010;2023-04-07T05:19:28;100747.84;;;10.08;nan
3082;BME280;1551;51.046;7.010;2023-04-07T05:22:23;100747.00;;;10.04;nan
3082;BME280;1551;51.046;7.010;2023-04-07T05:25:14;100752.97;;;10.08;nan
3082;BME280;1551;51.046;7.010;2023-04-07T05:28:06;100752.09;;;10.06;nan
3082;BME280;1551;51.046;7.010;2023-04-07T05:30:54;100755.47;;;10.11;nan
3082;BME280;1551;51.046;7.010;2023-04-07T05:33:49;100760.63;;;10.12;nan
3082;BME280;1551;51.046;7.010;2023-04-07T05:36:41;100758.91;;;10.08;nan
3082;BME280;1551;51.046;7.010;2023-04-07T05:39:30;100762.34;;;10.07;nan
3082;BME280;1551;51.046;7.010;2023-04-07T05:42:20;100769.19;;;10.05;nan
3082;BME280;1551;51.046;7.010;2023-04-07T05:45:13;100762.38;;;10.00;nan
3082;BME280;1551;51.046;7.010;2023-04-07T05:48:06;100767.47;;;10.04;nan
3082;BME280;1551;51.046;7.010;2023-04-07T05:51:04;100770.88;;;10.05;nan
3082;BME280;1551;51.046;7.010;2023-04-07T05:53:52;100770.03;;;10.01;nan
3082;BME280;1551;51.046;7.010;2023-04-07T05:56:44;100771.75;;;9.99;nan
3082;BME280;1551;51.046;7.010;2023-04-07T05:59:34;100774.31;;;10.01;nan
3082;BME280;1551;51.046;7.010;2023-04-07T06:02:23;100771.75;;;9.99;nan
3082;BME280;1551;51.046;7.010;2023-04-07T06:05:13;100779.44;;;10.01;nan
3082;BME280;1551;51.046;7.010;2023-04-07T06:08:03;100782.88;;;9.98;nan
3082;BME280;1551;51.046;7.010;2023-04-07T06:10:51;100779.44;;;9.98;nan
3082;BME280;1551;51.046;7.010;2023-04-07T06:13:40;100792.25;;;9.96;nan
3082;BME280;1551;51.046;7.010;2023-04-07T06:16:31;100797.31;;;9.99;nan
3082;BME280;1551;51.046;7.010;2023-04-07T06:19:20;100795.59;;;10.04;nan
3082;BME280;1551;51.046;7.010;2023-04-07T06:22:09;100797.38;;;9.96;nan
3082;BME280;1551;51.046;7.010;2023-04-07T06:25:01;100800.75;;;9.98;nan
3082;BME280;1551;51.046;7.010;2023-04-07T06:27:50;100796.50;;;9.94;nan
3082;BME280;1551;51.046;7.010;2023-04-07T06:30:39;100792.25;;;9.95;nan
3082;BME280;1551;51.046;7.010;2023-04-07T06:33:32;100794.81;;;9.92;nan
3082;BME280;1551;51.046;7.010;2023-04-07T06:36:21;100804.16;;;9.97;nan
3082;BME280;1551;51.046;7.010;2023-04-07T06:39:11;100802.47;;;9.96;nan
3082;BME280;1551;51.046;7.010;2023-04-07T06:42:00;100807.53;;;10.05;nan
3082;BME280;1551;51.046;7.010;2023-04-07T06:44:49;100809.22;;;10.05;nan
3082;BME280;1551;51.046;7.010;2023-04-07T06:47:38;100809.25;;;10.02;nan
3082;BME280;1551;51.046;7.010;2023-04-07T06:50:27;100821.19;;;9.97;nan
3082;BME280;1551;51.046;7.010;2023-04-07T06:53:16;100817.81;;;9.93;nan
3082;BME280;1551;51.046;7.010;2023-04-07T06:56:08;100828.88;;;9.97;nan
3082;BME280;1551;51.046;7.010;2023-04-07T06:58:57;100828.84;;;10.04;nan
3082;BME280;1551;51.046;7.010;2023-04-07T07:01:46;100814.38;;;9.99;nan
3082;BME280;1551;51.046;7.010;2023-04-07T07:04:36;100825.44;;;10.02;nan
3082;BME280;1551;51.046;7.010;2023-04-07T07:07:26;100830.53;;;10.04;nan
3082;BME280;1551;51.046;7.010;2023-04-07T07:10:16;100828.88;;;10.00;nan
3082;BME280;1551;51.046;7.010;2023-04-07T07:13:05;100839.09;;;9.97;nan
3082;BME280;1551;51.046;7.010;2023-04-07T07:15:54;100839.97;;;9.97;nan
3082;BME280;1551;51.046;7.010;2023-04-07T07:18:43;100838.25;;;10.01;nan
3082;BME280;1551;51.046;7.010;2023-04-07T07:21:32;100842.47;;;10.02;nan
3082;BME280;1551;51.046;7.010;2023-04-07T07:24:21;100839.94;;;10.03;nan
3082;BME280;1551;51.046;7.010;2023-04-07T07:27:10;100853.56;;;10.11;nan
3082;BME280;1551;51.046;7.010;2023-04-07T07:29:59;100846.72;;;10.06;nan
3082;BME280;1551;51.046;7.010;2023-04-07T07:32:49;100851.84;;;10.07;nan
3082;BME280;1551;51.046;7.010;2023-04-07T07:35:38;100851.00;;;10.05;nan
3082;BME280;1551;51.046;7.010;2023-04-07T07:38:28;100854.38;;;10.09;nan
3082;BME280;1551;51.046;7.010;2023-04-07T07:41:17;100862.88;;;10.20;nan
3082;BME280;1551;51.046;7.010;2023-04-07T07:44:06;100853.53;;;10.16;nan
3082;BME280;1551;51.046;7.010;2023-04-07T07:46:55;100863.72;;;10.22;nan
3082;BME280;1551;51.046;7.010;2023-04-07T07:49:44;100866.28;;;10.22;nan
3082;BME280;1551;51.046;7.010;2023-04-07T07:52:33;100858.66;;;10.17;nan
3082;BME280;1551;51.046;7.010;2023-04-07T07:55:22;100874.72;;;10.36;nan
3082;BME280;1551;51.046;7.010;2023-04-07T07:58:11;100863.66;;;10.31;nan
3082;BME280;1551;51.046;7.010;2023-04-07T08:01:00;100868.78;;;10.29;nan
3082;BME280;1551;51.046;7.010;2023-04-07T08:03:49;100879.84;;;10.36;nan
3082;BME280;1551;51.046;7.010;2023-04-07T08:06:38;100887.50;;;10.38;nan
3082;BME280;1551;51.046;7.010;2023-04-07T08:09:28;100874.69;;;10.41;nan
3082;BME280;1551;51.046;7.010;2023-04-07T08:12:18;100893.34;;;10.56;nan
3082;BME280;1551;51.046;7.010;2023-04-07T08:15:07;100893.38;;;10.55;nan
3082;BME280;1551;51.046;7.010;2023-04-07T08:17:58;100895.09;;;10.51;nan
3082;BME280;1551;51.046;7.010;2023-04-07T08:20:48;100899.41;;;10.45;nan
3082;BME280;1551;51.046;7.010;2023-04-07T08:23:37;100897.69;;;10.47;nan
3082;BME280;1551;51.046;7.010;2023-04-07T08:26:26;100903.63;;;10.49;nan
3082;BME280;1551;51.046;7.010;2023-04-07T08:29:15;100902.78;;;10.47;nan
3082;BME280;1551;51.046;7.010;2023-04-07T08:32:04;100908.75;;;10.49;nan
3082;BME280;1551;51.046;7.010;2023-04-07T08:34:54;100906.19;;;10.52;nan
3082;BME280;1551;51.046;7.010;2023-04-07T08:37:43;100911.25;;;10.56;nan
3082;BME280;1551;51.046;7.010;2023-04-07T08:40:33;100909.53;;;10.60;nan
3082;BME280;1551;51.046;7.010;2023-04-07T08:43:22;100913.81;;;10.58;nan
3082;BME280;1551;51.046;7.010;2023-04-07T08:46:13;100912.16;;;10.52;nan
3082;BME280;1551;51.046;7.010;2023-04-07T08:49:08;100920.63;;;10.62;nan
3082;BME280;1551;51.046;7.010;2023-04-07T08:51:58;100920.63;;;10.62;nan
3082;BME280;1551;51.046;7.010;2023-04-07T08:54:48;100914.63;;;10.66;nan
3082;BME280;1551;51.046;7.010;2023-04-07T08:57:37;100915.44;;;10.71;nan
3082;BME280;1551;51.046;7.010;2023-04-07T09:00:28;100923.03;;;10.83;nan
3082;BME280;1551;51.046;7.010;2023-04-07T09:03:17;100925.59;;;10.83;nan
3082;BME280;1551;51.046;7.010;2023-04-07T09:06:08;100923.84;;;10.86;nan
3082;BME280;1551;51.046;7.010;2023-04-07T09:08:59;100928.91;;;10.94;nan
3082;BME280;1551;51.046;7.010;2023-04-07T09:11:48;100926.41;;;10.89;nan
3082;BME280;1551;51.046;7.010;2023-04-07T09:14:38;100930.56;;;10.99;nan
3082;BME280;1551;51.046;7.010;2023-04-07T09:17:28;100940.81;;;10.99;nan
3082;BME280;1551;51.046;7.010;2023-04-07T09:20:17;100936.59;;;10.94;nan
3082;BME280;1551;51.046;7.010;2023-04-07T09:23:06;100934.84;;;10.99;nan
3082;BME280;1551;51.046;7.010;2023-04-07T09:25:56;100940.81;;;11.01;nan
3082;BME280;1551;51.046;7.010;2023-04-07T09:28:52;100937.38;;;11.03;nan
3082;BME280;1551;51.046;7.010;2023-04-07T09:31:49;100949.22;;;11.17;nan
3082;BME280;1551;51.046;7.010;2023-04-07T09:34:43;100946.56;;;11.27;nan
3082;BME280;1551;51.046;7.010;2023-04-07T09:37:32;100952.63;;;11.20;nan
3082;BME280;1551;51.046;7.010;2023-04-07T09:40:27;100946.75;;;11.04;nan
3082;BME280;1551;51.046;7.010;2023-04-07T09:43:18;100957.88;;;11.03;nan
3082;BME280;1551;51.046;7.010;2023-04-07T09:46:13;100948.47;;;11.04;nan
3082;BME280;1551;51.046;7.010;2023-04-07T09:49:02;100950.97;;;11.12;nan
3082;BME280;1551;51.046;7.010;2023-04-07T09:52:01;100948.34;;;11.16;nan
3082;BME280;1551;51.046;7.010;2023-04-07T09:54:55;100953.53;;;11.12;nan
3082;BME280;1551;51.046;7.010;2023-04-07T09:57:45;100962.03;;;11.17;nan
3082;BME280;1551;51.046;7.010;2023-04-07T10:00:36;100959.38;;;11.27;nan
3082;BME280;1551;51.046;7.010;2023-04-07T10:03:26;100964.44;;;11.33;nan
3082;BME280;1551;51.046;7.010;2023-04-07T10:06:16;100962.72;;;11.35;nan
3082;BME280;1551;51.046;7.010;2023-04-07T10:09:05;100957.66;;;11.29;nan
3082;BME280;1551;51.046;7.010;2023-04-07T10:11:56;100952.50;;;11.31;nan
3082;BME280;1551;51.046;7.010;2023-04-07T10:14:46;100955.00;;;11.38;nan
3082;BME280;1551;51.046;7.010;2023-04-07T10:17:37;100961.88;;;11.33;nan
3082;BME280;1551;51.046;7.010;2023-04-07T10:20:28;100971.31;;;11.28;nan
3082;BME280;1551;51.046;7.010;2023-04-07T10:23:20;100968.84;;;11.19;nan
3082;BME280;1551;51.046;7.010;2023-04-07T10:26:11;100973.25;;;11.03;nan
3082;BME280;1551;51.046;7.010;2023-04-07T10:29:07;100970.69;;;10.97;nan
3082;BME280;1551;51.046;7.010;2023-04-07T10:31:58;100974.13;;;10.95;nan
3082;BME280;1551;51.046;7.010;2023-04-07T10:37:38;100973.22;;;11.02;nan
3082;BME280;1551;51.046;7.010;2023-04-07T10:40:27;100980.72;;;11.29;nan
3082;BME280;1551;51.046;7.010;2023-04-07T10:43:36;100975.66;;;11.22;nan
3082;BME280;1551;51.046;7.010;2023-04-07T10:49:35;100988.25;;;11.47;nan
3082;BME280;1551;51.046;7.010;2023-04-07T10:52:25;100987.31;;;11.57;nan
3082;BME280;1551;51.046;7.010;2023-04-07T10:58:27;100992.34;;;11.69;nan
3082;BME280;1551;51.046;7.010;2023-04-07T11:01:19;100990.72;;;11.58;nan
3082;BME280;1551;51.046;7.010;2023-04-07T11:04:08;100990.69;;;11.62;nan
3082;BME280;1551;51.046;7.010;2023-04-07T11:06:57;100994.03;;;11.70;nan
3082;BME280;1551;51.046;7.010;2023-04-07T11:09:47;100994.03;;;11.72;nan
3082;BME280;1551;51.046;7.010;2023-04-07T11:12:36;100996.44;;;11.86;nan
3082;BME280;1551;51.046;7.010;2023-04-07T11:15:25;100982.69;;;11.93;nan
3082;BME280;1551;51.046;7.010;2023-04-07T11:21:05;100997.72;;;12.26;nan
3082;BME280;1551;51.046;7.010;2023-04-07T11:23:56;100998.63;;;12.20;nan
3082;BME280;1551;51.046;7.010;2023-04-07T11:26:45;100998.72;;;12.14;nan
3082;BME280;1551;51.046;7.010;2023-04-07T11:29:34;100996.22;;;12.07;nan
3082;BME280;1551;51.046;7.010;2023-04-07T11:32:22;101000.53;;;12.03;nan
3082;BME280;1551;51.046;7.010;2023-04-07T11:35:13;101009.09;;;12.02;nan
3082;BME280;1551;51.046;7.010;2023-04-07T11:38:02;101007.34;;;12.07;nan
3082;BME280;1551;51.046;7.010;2023-04-07T11:40:53;101005.66;;;12.05;nan
3082;BME280;1551;51.046;7.010;2023-04-07T11:43:43;101010.81;;;12.02;nan
3082;BME280;1551;51.046;7.010;2023-04-07T11:46:32;101013.47;;;11.93;nan
3082;BME280;1551;51.046;7.010;2023-04-07T11:49:23;101015.31;;;11.80;nan
3082;BME280;1551;51.046;7.010;2023-04-07T11:52:13;101021.41;;;11.67;nan
3082;BME280;1551;51.046;7.010;2023-04-07T11:55:01;101023.16;;;11.62;nan
3082;BME280;1551;51.046;7.010;2023-04-07T11:57:50;101027.53;;;11.51;nan
3082;BME280;1551;51.046;7.010;2023-04-07T12:00:56;101023.31;;;11.42;nan
3082;BME280;1551;51.046;7.010;2023-04-07T12:06:47;101035.03;;;11.73;nan
3082;BME280;1551;51.046;7.010;2023-04-07T12:09:37;101036.38;;;12.11;nan
3082;BME280;1551;51.046;7.010;2023-04-07T12:12:29;101037.72;;;12.42;nan
3082;BME280;1551;51.046;7.010;2023-04-07T12:15:20;101028.63;;;12.82;nan
3082;BME280;1551;51.046;7.010;2023-04-07T12:18:14;101035.41;;;12.88;nan
3082;BME280;1551;51.046;7.010;2023-04-07T12:21:04;101037.09;;;12.89;nan
3082;BME280;1551;51.046;7.010;2023-04-07T12:23:53;101037.00;;;12.95;nan
3082;BME280;1551;51.046;7.010;2023-04-07T12:26:42;101036.16;;;12.96;nan
3082;BME280;1551;51.046;7.010;2023-04-07T12:29:31;101036.16;;;12.96;nan
3082;BME280;1551;51.046;7.010;2023-04-07T12:32:21;101041.78;;;13.21;nan
3082;BME280;1551;51.046;7.010;2023-04-07T12:35:10;101035.13;;;13.09;nan
3082;BME280;1551;51.046;7.010;2023-04-07T12:37:58;101044.78;;;12.90;nan
3082;BME280;1551;51.046;7.010;2023-04-07T12:40:47;101051.63;;;12.90;nan
3082;BME280;1551;51.046;7.010;2023-04-07T12:43:36;101049.25;;;12.76;nan
3082;BME280;1551;51.046;7.010;2023-04-07T12:46:25;101058.75;;;12.71;nan
3082;BME280;1551;51.046;7.010;2023-04-07T12:49:14;101054.97;;;12.96;nan
3082;BME280;1551;51.046;7.010;2023-04-07T12:52:04;101052.06;;;13.21;nan
3082;BME280;1551;51.046;7.010;2023-04-07T12:54:54;101059.47;;;13.42;nan
3082;BME280;1551;51.046;7.010;2023-04-07T12:57:43;101052.53;;;13.47;nan
3082;BME280;1551;51.046;7.010;2023-04-07T13:00:32;101057.97;;;13.29;nan
3082;BME280;1551;51.046;7.010;2023-04-07T13:03:21;101048.84;;;13.08;nan
3082;BME280;1551;51.046;7.010;2023-04-07T13:06:10;101053.06;;;13.12;nan
3082;BME280;1551;51.046;7.010;2023-04-07T13:08:59;101053.72;;;13.25;nan
3082;BME280;1551;51.046;7.010;2023-04-07T13:11:48;101055.28;;;13.35;nan
3082;BME280;1551;51.046;7.010;2023-04-07T13:14:37;101061.09;;;13.46;nan
3082;BME280;1551;51.046;7.010;2023-04-07T13:17:27;101069.38;;;13.64;nan
3082;BME280;1551;51.046;7.010;2023-04-07T13:20:16;101057.06;;;13.83;nan
3082;BME280;1551;51.046;7.010;2023-04-07T13:23:05;101070.97;;;14.19;nan
3082;BME280;1551;51.046;7.010;2023-04-07T13:25:54;101067.81;;;14.05;nan
3082;BME280;1551;51.046;7.010;2023-04-07T13:28:44;101072.94;;;13.56;nan
3082;BME280;1551;51.046;7.010;2023-04-07T13:31:33;101073.22;;;13.41;nan
3082;BME280;1551;51.046;7.010;2023-04-07T13:34:22;101063.69;;;13.46;nan
3082;BME280;1551;51.046;7.010;2023-04-07T13:37:11;101069.78;;;13.40;nan
3082;BME280;1551;51.046;7.010;2023-04-07T13:40:00;101071.09;;;13.65;nan
3082;BME280;1551;51.046;7.010;2023-04-07T13:42:49;101074.22;;;13.81;nan
3082;BME280;1551;51.046;7.010;2023-04-07T13:45:38;101076.00;;;13.79;nan
3082;BME280;1551;51.046;7.010;2023-04-07T13:48:27;101066.78;;;13.66;nan
3082;BME280;1551;51.046;7.010;2023-04-07T13:51:17;101060.94;;;13.56;nan
3082;BME280;1551;51.046;7.010;2023-04-07T13:54:07;101061.03;;;13.52;nan
3082;BME280;1551;51.046;7.010;2023-04-07T13:56:56;101062.69;;;13.53;nan
3082;BME280;1551;51.046;7.010;2023-04-07T13:59:49;101066.38;;;13.38;nan
3082;BME280;1551;51.046;7.010;2023-04-07T14:02:40;101068.06;;;13.39;nan
3082;BME280;1551;51.046;7.010;2023-04-07T14:05:29;101066.28;;;13.44;nan
3082;BME280;1551;51.046;7.010;2023-04-07T14:08:19;101063.81;;;13.37;nan
3082;BME280;1551;51.046;7.010;2023-04-07T14:11:11;101072.75;;;13.13;nan
3082;BME280;1551;51.046;7.010;2023-04-07T14:13:59;101067.81;;;12.98;nan
3082;BME280;1551;51.046;7.010;2023-04-07T14:16:49;101071.34;;;12.88;nan
3082;BME280;1551;51.046;7.010;2023-04-07T14:19:40;101070.44;;;12.92;nan
3082;BME280;1551;51.046;7.010;2023-04-07T14:22:30;101068.59;;;13.03;nan
3082;BME280;1551;51.046;7.010;2023-04-07T14:25:19;101042.00;;;13.04;nan
3082;BME280;1551;51.046;7.010;2023-04-07T14:28:08;101067.34;;;13.30;nan
3082;BME280;1551;51.046;7.010;2023-04-07T14:30:57;101071.59;;;13.32;nan
3082;BME280;1551;51.046;7.010;2023-04-07T14:33:46;101069.84;;;13.36;nan
3082;BME280;1551;51.046;7.010;2023-04-07T14:36:35;101065.56;;;13.35;nan
3082;BME280;1551;51.046;7.010;2023-04-07T14:39:24;101069.09;;;13.29;nan
3082;BME280;1551;51.046;7.010;2023-04-07T14:42:13;101072.31;;;13.42;nan
3082;BME280;1551;51.046;7.010;2023-04-07T14:45:02;101073.78;;;13.58;nan
3082;BME280;1551;51.046;7.010;2023-04-07T14:47:52;101077.97;;;13.63;nan
3082;BME280;1551;51.046;7.010;2023-04-07T14:50:41;101078.97;;;13.55;nan
3082;BME280;1551;51.046;7.010;2023-04-07T14:53:30;101081.31;;;13.68;nan
3082;BME280;1551;51.046;7.010;2023-04-07T14:56:19;101088.00;;;13.80;nan
3082;BME280;1551;51.046;7.010;2023-04-07T14:59:09;101078.56;;;13.81;nan
3082;BME280;1551;51.046;7.010;2023-04-07T15:01:57;101084.44;;;13.86;nan
3082;BME280;1551;51.046;7.010;2023-04-07T15:04:46;101095.22;;;14.09;nan
3082;BME280;1551;51.046;7.010;2023-04-07T15:07:35;101099.59;;;14.50;nan
3082;BME280;1551;51.046;7.010;2023-04-07T15:10:25;101093.50;;;14.55;nan
3082;BME280;1551;51.046;7.010;2023-04-07T15:13:14;101093.63;;;14.48;nan
3082;BME280;1551;51.046;7.010;2023-04-07T15:16:11;101106.88;;;14.26;nan
3082;BME280;1551;51.046;7.010;2023-04-07T15:19:00;101102.91;;;14.10;nan
3082;BME280;1551;51.046;7.010;2023-04-07T15:21:49;101117.84;;;13.90;nan
3082;BME280;1551;51.046;7.010;2023-04-07T15:24:39;101121.44;;;13.80;nan
3082;BME280;1551;51.046;7.010;2023-04-07T15:27:28;101112.09;;;13.74;nan
3082;BME280;1551;51.046;7.010;2023-04-07T15:30:17;101112.19;;;13.67;nan
3082;BME280;1551;51.046;7.010;2023-04-07T15:33:06;101113.28;;;13.54;nan
3082;BME280;1551;51.046;7.010;2023-04-07T15:35:55;101106.41;;;13.53;nan
3082;BME280;1551;51.046;7.010;2023-04-07T15:38:45;101103.78;;;13.59;nan
3082;BME280;1551;51.046;7.010;2023-04-07T15:41:34;101108.09;;;13.55;nan
3082;BME280;1551;51.046;7.010;2023-04-07T15:44:23;101105.59;;;13.51;nan
3082;BME280;1551;51.046;7.010;2023-04-07T15:47:12;101105.94;;;13.28;nan
3082;BME280;1551;51.046;7.010;2023-04-07T15:50:01;101103.38;;;13.28;nan
3082;BME280;1551;51.046;7.010;2023-04-07T15:52:50;101105.75;;;13.42;nan
3082;BME280;1551;51.046;7.010;2023-04-07T15:55:39;101106.50;;;13.48;nan
3082;BME280;1551;51.046;7.010;2023-04-07T15:58:29;101109.63;;;13.67;nan
3082;BME280;1551;51.046;7.010;2023-04-07T16:01:19;101119.53;;;13.91;nan